sensor_id;sensor_type;location;lat;lon;timestamp;P1;durP1;ratioP1;P2;durP2;ratioP2
966;SDS011;56108;48.730;9.304;2022-09-09T00:01:08;3.00;;;2.80;;
966;SDS011;56108;48.730;9.304;2022-09-09T00:09:58;2.60;;;2.40;;
966;SDS011;56108;48.730;9.304;2022-09-09T00:12:17;2.47;;;2.28;;
966;SDS011;56108;48.730;9.304;2022-09-09T00:14:34;2.78;;;2.30;;
966;SDS011;56108;48.730;9.304;2022-09-09T00:16:51;2.42;;;2.22;;
966;SDS011;56108;48.730;9.304;2022-09-09T00:19:30;3.22;;;2.60;;
966;SDS011;56108;48.730;9.304;2022-09-09T00:21:49;3.78;;;2.22;;
966;SDS011;56108;48.730;9.304;2022-09-09T00:26:58;3.45;;;2.30;;
966;SDS011;56108;48.730;9.304;2022-09-09T00:29:22;3.15;;;2.85;;
966;SDS011;56108;48.730;9.304;2022-09-09T00:31:43;3.15;;;2.10;;
966;SDS011;56108;48.730;9.304;2022-09-09T00:34:28;2.65;;;2.42;;
966;SDS011;56108;48.730;9.304;2022-09-09T00:36:37;3.85;;;2.55;;
966;SDS011;56108;48.730;9.304;2022-09-09T00:38:51;2.55;;;2.45;;
966;SDS011;56108;48.730;9.304;2022-09-09T00:44:16;3.05;;;2.30;;
966;SDS011;56108;48.730;9.304;2022-09-09T00:47:07;2.63;;;2.42;;
966;SDS011;56108;48.730;9.304;2022-09-09T00:49:43;2.90;;;2.67;;
966;SDS011;56108;48.730;9.304;2022-09-09T00:52:28;3.42;;;3.05;;
966;SDS011;56108;48.730;9.304;2022-09-09T00:55:16;3.00;;;2.70;;
966;SDS011;56108;48.730;9.304;2022-09-09T00:57:44;3.45;;;2.45;;
966;SDS011;56108;48.730;9.304;2022-09-09T01:00:23;5.70;;;2.60;;
966;SDS011;56108;48.730;9.304;2022-09-09T01:02:35;3.92;;;3.63;;
966;SDS011;56108;48.730;9.304;2022-09-09T01:04:56;3.45;;;3.15;;
966;SDS011;56108;48.730;9.304;2022-09-09T01:07:12;5.07;;;3.58;;
966;SDS011;56108;48.730;9.304;2022-09-09T01:09:28;3.30;;;3.00;;
966;SDS011;56108;48.730;9.304;2022-09-09T01:12:07;2.47;;;2.28;;
966;SDS011;56108;48.730;9.304;2022-09-09T01:14:41;2.85;;;2.60;;
966;SDS011;56108;48.730;9.304;2022-09-09T01:17:39;4.53;;;2.60;;
966;SDS011;56108;48.730;9.304;2022-09-09T01:20:12;5.38;;;2.45;;
966;SDS011;56108;48.730;9.304;2022-09-09T01:22:57;2.75;;;2.47;;
966;SDS011;56108;48.730;9.304;2022-09-09T01:28:08;2.70;;;2.35;;
966;SDS011;56108;48.730;9.304;2022-09-09T01:30:19;3.00;;;2.72;;
966;SDS011;56108;48.730;9.304;2022-09-09T01:32:40;3.78;;;3.00;;
966;SDS011;56108;48.730;9.304;2022-09-09T01:34:50;5.15;;;2.70;;
966;SDS011;56108;48.730;9.304;2022-09-09T01:37:20;2.92;;;2.63;;
966;SDS011;56108;48.730;9.304;2022-09-09T01:39:50;3.90;;;2.90;;
966;SDS011;56108;48.730;9.304;2022-09-09T01:41:59;4.85;;;3.10;;
966;SDS011;56108;48.730;9.304;2022-09-09T01:44:38;3.22;;;2.60;;
966;SDS011;56108;48.730;9.304;2022-09-09T01:47:07;2.92;;;2.72;;
966;SDS011;56108;48.730;9.304;2022-09-09T01:49:33;4.28;;;2.47;;
966;SDS011;56108;48.730;9.304;2022-09-09T01:52:03;4.75;;;3.33;;
966;SDS011;56108;48.730;9.304;2022-09-09T01:54:27;4.43;;;3.35;;
966;SDS011;56108;48.730;9.304;2022-09-09T01:56:57;3.72;;;3.40;;
966;SDS011;56108;48.730;9.304;2022-09-09T02:05:56;3.42;;;2.70;;
966;SDS011;56108;48.730;9.304;2022-09-09T02:08:17;6.45;;;2.60;;
966;SDS011;56108;48.730;9.304;2022-09-09T02:11:03;3.70;;;2.58;;
966;SDS011;56108;48.730;9.304;2022-09-09T02:13:50;3.47;;;3.10;;
966;SDS011;56108;48.730;9.304;2022-09-09T02:16:10;4.15;;;3.75;;
966;SDS011;56108;48.730;9.304;2022-09-09T02:18:51;4.22;;;3.58;;
966;SDS011;56108;48.730;9.304;2022-09-09T02:21:15;4.35;;;3.42;;
966;SDS011;56108;48.730;9.304;2022-09-09T02:23:24;3.85;;;3.30;;
966;SDS011;56108;48.730;9.304;2022-09-09T02:25:33;3.30;;;3.03;;
966;SDS011;56108;48.730;9.304;2022-09-09T02:27:53;5.50;;;3.70;;
966;SDS011;56108;48.730;9.304;2022-09-09T02:30:03;3.67;;;3.38;;
966;SDS011;56108;48.730;9.304;2022-09-09T02:32:17;4.57;;;3.35;;
966;SDS011;56108;48.730;9.304;2022-09-09T02:34:35;5.10;;;4.70;;
966;SDS011;56108;48.730;9.304;2022-09-09T02:37:17;4.43;;;3.97;;
966;SDS011;56108;48.730;9.304;2022-09-09T02:39:52;5.60;;;4.20;;
966;SDS011;56108;48.730;9.304;2022-09-09T02:42:17;5.35;;;3.75;;
966;SDS011;56108;48.730;9.304;2022-09-09T02:44:28;7.90;;;4.30;;
966;SDS011;56108;48.730;9.304;2022-09-09T02:47:03;4.85;;;4.10;;
966;SDS011;56108;48.730;9.304;2022-09-09T02:49:25;4.80;;;3.97;;
966;SDS011;56108;48.730;9.304;2022-09-09T02:51:40;4.25;;;3.85;;
966;SDS011;56108;48.730;9.304;2022-09-09T02:54:02;4.00;;;3.60;;
966;SDS011;56108;48.730;9.304;2022-09-09T02:56:18;3.53;;;3.08;;
966;SDS011;56108;48.730;9.304;2022-09-09T02:58:32;5.72;;;3.65;;
966;SDS011;56108;48.730;9.304;2022-09-09T03:00:43;6.85;;;4.00;;
966;SDS011;56108;48.730;9.304;2022-09-09T03:02:53;3.58;;;3.33;;
966;SDS011;56108;48.730;9.304;2022-09-09T03:05:01;5.20;;;4.40;;
966;SDS011;56108;48.730;9.304;2022-09-09T03:07:12;5.78;;;4.88;;
966;SDS011;56108;48.730;9.304;2022-09-09T03:09:21;4.43;;;4.05;;
966;SDS011;56108;48.730;9.304;2022-09-09T03:11:31;5.40;;;4.60;;
966;SDS011;56108;48.730;9.304;2022-09-09T03:13:39;4.05;;;3.70;;
966;SDS011;56108;48.730;9.304;2022-09-09T03:15:48;4.75;;;3.85;;
966;SDS011;56108;48.730;9.304;2022-09-09T03:17:58;5.05;;;3.38;;
966;SDS011;56108;48.730;9.304;2022-09-09T03:20:06;4.00;;;3.53;;
966;SDS011;56108;48.730;9.304;2022-09-09T03:22:18;5.18;;;3.70;;
966;SDS011;56108;48.730;9.304;2022-09-09T03:24:26;6.15;;;3.90;;
966;SDS011;56108;48.730;9.304;2022-09-09T03:26:36;4.00;;;3.53;;
966;SDS011;56108;48.730;9.304;2022-09-09T03:28:58;3.13;;;2.92;;
966;SDS011;56108;48.730;9.304;2022-09-09T03:31:07;4.78;;;3.30;;
966;SDS011;56108;48.730;9.304;2022-09-09T03:33:18;3.20;;;2.90;;
966;SDS011;56108;48.730;9.304;2022-09-09T03:35:26;4.78;;;3.75;;
966;SDS011;56108;48.730;9.304;2022-09-09T03:37:37;6.95;;;3.90;;
966;SDS011;56108;48.730;9.304;2022-09-09T03:39:47;5.35;;;3.95;;
966;SDS011;56108;48.730;9.304;2022-09-09T03:41:56;6.95;;;4.55;;
966;SDS011;56108;48.730;9.304;2022-09-09T03:44:04;4.65;;;3.55;;
966;SDS011;56108;48.730;9.304;2022-09-09T03:46:16;4.10;;;3.03;;
966;SDS011;56108;48.730;9.304;2022-09-09T03:48:24;7.50;;;4.07;;
966;SDS011;56108;48.730;9.304;2022-09-09T03:50:33;4.00;;;3.63;;
966;SDS011;56108;48.730;9.304;2022-09-09T03:52:44;4.93;;;3.58;;
966;SDS011;56108;48.730;9.304;2022-09-09T03:54:58;3.08;;;2.75;;
966;SDS011;56108;48.730;9.304;2022-09-09T03:57:06;3.10;;;2.90;;
966;SDS011;56108;48.730;9.304;2022-09-09T03:59:14;7.18;;;3.90;;
966;SDS011;56108;48.730;9.304;2022-09-09T04:01:23;3.08;;;2.78;;
966;SDS011;56108;48.730;9.304;2022-09-09T04:03:31;3.75;;;2.88;;
966;SDS011;56108;48.730;9.304;2022-09-09T04:05:39;3.22;;;2.92;;
966;SDS011;56108;48.730;9.304;2022-09-09T04:07:50;4.10;;;3.10;;
966;SDS011;56108;48.730;9.304;2022-09-09T04:09:59;3.83;;;2.58;;
966;SDS011;56108;48.730;9.304;2022-09-09T04:12:07;5.43;;;3.47;;
966;SDS011;56108;48.730;9.304;2022-09-09T04:14:18;4.93;;;3.17;;
966;SDS011;56108;48.730;9.304;2022-09-09T04:16:26;3.22;;;2.75;;
966;SDS011;56108;48.730;9.304;2022-09-09T04:18:35;3.85;;;2.63;;
966;SDS011;56108;48.730;9.304;2022-09-09T04:20:45;3.25;;;3.00;;
966;SDS011;56108;48.730;9.304;2022-09-09T04:22:59;4.30;;;2.85;;
966;SDS011;56108;48.730;9.304;2022-09-09T04:25:08;2.80;;;2.60;;
966;SDS011;56108;48.730;9.304;2022-09-09T04:27:16;3.08;;;2.70;;
966;SDS011;56108;48.730;9.304;2022-09-09T04:29:23;4.47;;;2.95;;
966;SDS011;56108;48.730;9.304;2022-09-09T04:31:33;3.20;;;2.92;;
966;SDS011;56108;48.730;9.304;2022-09-09T04:33:42;2.90;;;2.42;;
966;SDS011;56108;48.730;9.304;2022-09-09T04:35:50;2.83;;;2.63;;
966;SDS011;56108;48.730;9.304;2022-09-09T04:38:04;4.38;;;3.45;;
966;SDS011;56108;48.730;9.304;2022-09-09T04:40:14;3.58;;;3.30;;
966;SDS011;56108;48.730;9.304;2022-09-09T04:42:22;3.47;;;2.67;;
966;SDS011;56108;48.730;9.304;2022-09-09T04:44:32;3.83;;;3.00;;
966;SDS011;56108;48.730;9.304;2022-09-09T04:46:40;3.78;;;2.88;;
966;SDS011;56108;48.730;9.304;2022-09-09T04:49:07;6.80;;;2.90;;
966;SDS011;56108;48.730;9.304;2022-09-09T04:52:26;5.60;;;3.00;;
966;SDS011;56108;48.730;9.304;2022-09-09T04:54:53;2.65;;;2.45;;
966;SDS011;56108;48.730;9.304;2022-09-09T04:57:01;4.18;;;2.95;;
966;SDS011;56108;48.730;9.304;2022-09-09T04:59:10;3.08;;;2.88;;
966;SDS011;56108;48.730;9.304;2022-09-09T05:01:24;2.65;;;2.45;;
966;SDS011;56108;48.730;9.304;2022-09-09T05:03:38;5.68;;;2.90;;
966;SDS011;56108;48.730;9.304;2022-09-09T05:05:49;3.40;;;2.72;;
966;SDS011;56108;48.730;9.304;2022-09-09T05:08:00;2.60;;;2.40;;
966;SDS011;56108;48.730;9.304;2022-09-09T05:10:24;3.50;;;2.72;;
966;SDS011;56108;48.730;9.304;2022-09-09T05:12:32;3.53;;;2.85;;
966;SDS011;56108;48.730;9.304;2022-09-09T05:14:40;5.00;;;3.08;;
966;SDS011;56108;48.730;9.304;2022-09-09T05:16:49;3.20;;;2.90;;
966;SDS011;56108;48.730;9.304;2022-09-09T05:18:58;5.18;;;3.20;;
966;SDS011;56108;48.730;9.304;2022-09-09T05:21:20;3.25;;;2.75;;
966;SDS011;56108;48.730;9.304;2022-09-09T05:23:29;3.15;;;2.90;;
966;SDS011;56108;48.730;9.304;2022-09-09T05:25:41;2.97;;;2.65;;
966;SDS011;56108;48.730;9.304;2022-09-09T05:27:51;3.17;;;2.88;;
966;SDS011;56108;48.730;9.304;2022-09-09T05:29:59;3.35;;;3.05;;
966;SDS011;56108;48.730;9.304;2022-09-09T05:32:07;5.03;;;3.10;;
966;SDS011;56108;48.730;9.304;2022-09-09T05:34:20;4.10;;;3.35;;
966;SDS011;56108;48.730;9.304;2022-09-09T05:36:28;3.40;;;3.20;;
966;SDS011;56108;48.730;9.304;2022-09-09T05:38:36;4.40;;;3.40;;
966;SDS011;56108;48.730;9.304;2022-09-09T05:40:50;3.58;;;3.38;;
966;SDS011;56108;48.730;9.304;2022-09-09T05:42:59;6.30;;;3.17;;
966;SDS011;56108;48.730;9.304;2022-09-09T05:45:09;6.00;;;3.13;;
966;SDS011;56108;48.730;9.304;2022-09-09T05:47:17;2.75;;;2.55;;
966;SDS011;56108;48.730;9.304;2022-09-09T05:49:25;2.90;;;2.70;;
966;SDS011;56108;48.730;9.304;2022-09-09T05:51:33;3.22;;;3.03;;
966;SDS011;56108;48.730;9.304;2022-09-09T05:54:42;4.35;;;3.10;;
966;SDS011;56108;48.730;9.304;2022-09-09T05:57:12;4.07;;;2.92;;
966;SDS011;56108;48.730;9.304;2022-09-09T05:59:21;4.22;;;2.40;;
966;SDS011;56108;48.730;9.304;2022-09-09T06:01:35;5.00;;;3.35;;
966;SDS011;56108;48.730;9.304;2022-09-09T06:03:48;4.15;;;2.53;;
966;SDS011;56108;48.730;9.304;2022-09-09T06:06:00;3.30;;;2.38;;
966;SDS011;56108;48.730;9.304;2022-09-09T06:08:10;5.18;;;2.92;;
966;SDS011;56108;48.730;9.304;2022-09-09T06:10:18;3.40;;;3.10;;
966;SDS011;56108;48.730;9.304;2022-09-09T06:12:29;3.80;;;2.33;;
966;SDS011;56108;48.730;9.304;2022-09-09T06:14:38;3.00;;;2.70;;
966;SDS011;56108;48.730;9.304;2022-09-09T06:16:51;5.03;;;3.15;;
966;SDS011;56108;48.730;9.304;2022-09-09T06:19:01;5.75;;;2.83;;
966;SDS011;56108;48.730;9.304;2022-09-09T06:21:11;4.32;;;3.00;;
966;SDS011;56108;48.730;9.304;2022-09-09T06:23:24;3.38;;;3.08;;
966;SDS011;56108;48.730;9.304;2022-09-09T06:25:35;2.95;;;2.60;;
966;SDS011;56108;48.730;9.304;2022-09-09T06:27:50;2.80;;;2.50;;
966;SDS011;56108;48.730;9.304;2022-09-09T06:29:59;3.38;;;2.70;;
966;SDS011;56108;48.730;9.304;2022-09-09T06:32:08;3.85;;;2.75;;
966;SDS011;56108;48.730;9.304;2022-09-09T06:34:16;4.18;;;2.70;;
966;SDS011;56108;48.730;9.304;2022-09-09T06:36:27;3.90;;;2.75;;
966;SDS011;56108;48.730;9.304;2022-09-09T06:38:37;3.40;;;2.47;;
966;SDS011;56108;48.730;9.304;2022-09-09T06:40:50;3.10;;;2.90;;
966;SDS011;56108;48.730;9.304;2022-09-09T06:43:03;2.88;;;2.50;;
966;SDS011;56108;48.730;9.304;2022-09-09T06:45:16;5.38;;;3.00;;
966;SDS011;56108;48.730;9.304;2022-09-09T06:47:31;3.40;;;3.10;;
966;SDS011;56108;48.730;9.304;2022-09-09T06:49:39;3.97;;;3.00;;
966;SDS011;56108;48.730;9.304;2022-09-09T06:51:52;3.03;;;2.70;;
966;SDS011;56108;48.730;9.304;2022-09-09T06:54:00;5.38;;;2.50;;
966;SDS011;56108;48.730;9.304;2022-09-09T06:56:20;6.57;;;2.78;;
966;SDS011;56108;48.730;9.304;2022-09-09T06:58:34;3.85;;;2.80;;
966;SDS011;56108;48.730;9.304;2022-09-09T07:00:42;3.85;;;2.78;;
966;SDS011;56108;48.730;9.304;2022-09-09T07:02:50;3.42;;;3.22;;
966;SDS011;56108;48.730;9.304;2022-09-09T07:04:59;3.28;;;2.97;;
966;SDS011;56108;48.730;9.304;2022-09-09T07:07:07;3.10;;;2.80;;
966;SDS011;56108;48.730;9.304;2022-09-09T07:09:21;4.43;;;3.10;;
966;SDS011;56108;48.730;9.304;2022-09-09T07:11:30;4.18;;;2.63;;
966;SDS011;56108;48.730;9.304;2022-09-09T07:13:43;2.85;;;2.60;;
966;SDS011;56108;48.730;9.304;2022-09-09T07:15:51;3.85;;;3.08;;
966;SDS011;56108;48.730;9.304;2022-09-09T07:18:01;2.55;;;2.35;;
966;SDS011;56108;48.730;9.304;2022-09-09T07:20:15;3.10;;;2.40;;
966;SDS011;56108;48.730;9.304;2022-09-09T07:26:09;4.47;;;2.70;;
966;SDS011;56108;48.730;9.304;2022-09-09T07:28:18;2.80;;;2.22;;
966;SDS011;56108;48.730;9.304;2022-09-09T07:30:28;3.58;;;2.58;;
966;SDS011;56108;48.730;9.304;2022-09-09T07:32:36;5.53;;;2.72;;
966;SDS011;56108;48.730;9.304;2022-09-09T07:34:44;3.47;;;2.72;;
966;SDS011;56108;48.730;9.304;2022-09-09T07:36:54;3.72;;;2.90;;
966;SDS011;56108;48.730;9.304;2022-09-09T07:39:03;2.97;;;2.30;;
966;SDS011;56108;48.730;9.304;2022-09-09T07:41:14;4.45;;;3.00;;
966;SDS011;56108;48.730;9.304;2022-09-09T07:43:27;3.47;;;2.55;;
966;SDS011;56108;48.730;9.304;2022-09-09T07:45:39;4.68;;;3.55;;
966;SDS011;56108;48.730;9.304;2022-09-09T07:47:47;3.45;;;3.15;;
966;SDS011;56108;48.730;9.304;2022-09-09T07:49:55;3.00;;;2.75;;
966;SDS011;56108;48.730;9.304;2022-09-09T07:52:07;3.65;;;3.30;;
966;SDS011;56108;48.730;9.304;2022-09-09T07:54:23;8.25;;;3.45;;
966;SDS011;56108;48.730;9.304;2022-09-09T07:56:31;3.90;;;3.22;;
966;SDS011;56108;48.730;9.304;2022-09-09T07:58:41;8.07;;;3.47;;
966;SDS011;56108;48.730;9.304;2022-09-09T08:00:51;3.33;;;2.85;;
966;SDS011;56108;48.730;9.304;2022-09-09T08:03:00;2.90;;;2.58;;
966;SDS011;56108;48.730;9.304;2022-09-09T08:05:08;2.78;;;2.58;;
966;SDS011;56108;48.730;9.304;2022-09-09T08:07:18;4.63;;;2.60;;
966;SDS011;56108;48.730;9.304;2022-09-09T08:09:30;6.93;;;3.17;;
966;SDS011;56108;48.730;9.304;2022-09-09T08:11:45;5.72;;;2.90;;
966;SDS011;56108;48.730;9.304;2022-09-09T08:13:54;3.25;;;2.92;;
966;SDS011;56108;48.730;9.304;2022-09-09T08:16:10;2.22;;;1.90;;
966;SDS011;56108;48.730;9.304;2022-09-09T08:18:20;2.80;;;2.50;;
966;SDS011;56108;48.730;9.304;2022-09-09T08:20:28;2.58;;;2.10;;
966;SDS011;56108;48.730;9.304;2022-09-09T08:22:36;2.72;;;1.90;;
966;SDS011;56108;48.730;9.304;2022-09-09T08:24:46;2.38;;;2.13;;
966;SDS011;56108;48.730;9.304;2022-09-09T08:26:55;2.33;;;1.83;;
966;SDS011;56108;48.730;9.304;2022-09-09T08:29:05;1.80;;;1.70;;
966;SDS011;56108;48.730;9.304;2022-09-09T08:31:18;2.40;;;1.60;;
966;SDS011;56108;48.730;9.304;2022-09-09T08:33:27;2.13;;;1.50;;
966;SDS011;56108;48.730;9.304;2022-09-09T08:35:35;1.98;;;1.85;;
966;SDS011;56108;48.730;9.304;2022-09-09T08:37:43;1.70;;;1.60;;
966;SDS011;56108;48.730;9.304;2022-09-09T08:39:55;1.73;;;1.65;;
966;SDS011;56108;48.730;9.304;2022-09-09T08:42:13;2.78;;;1.88;;
966;SDS011;56108;48.730;9.304;2022-09-09T08:44:32;3.63;;;1.90;;
966;SDS011;56108;48.730;9.304;2022-09-09T08:47:01;3.67;;;1.70;;
966;SDS011;56108;48.730;9.304;2022-09-09T08:49:22;2.00;;;1.90;;
966;SDS011;56108;48.730;9.304;2022-09-09T08:51:46;2.00;;;1.90;;
966;SDS011;56108;48.730;9.304;2022-09-09T08:53:56;2.63;;;1.83;;
966;SDS011;56108;48.730;9.304;2022-09-09T08:56:09;2.17;;;1.83;;
966;SDS011;56108;48.730;9.304;2022-09-09T08:58:25;1.50;;;1.45;;
966;SDS011;56108;48.730;9.304;2022-09-09T09:00:41;1.90;;;1.52;;
966;SDS011;56108;48.730;9.304;2022-09-09T09:03:02;3.63;;;1.42;;
966;SDS011;56108;48.730;9.304;2022-09-09T09:05:19;4.22;;;1.70;;
966;SDS011;56108;48.730;9.304;2022-09-09T09:07:38;2.20;;;1.70;;
966;SDS011;56108;48.730;9.304;2022-09-09T09:10:02;1.73;;;1.63;;
966;SDS011;56108;48.730;9.304;2022-09-09T09:12:40;1.95;;;1.50;;
966;SDS011;56108;48.730;9.304;2022-09-09T09:14:54;1.45;;;1.35;;
966;SDS011;56108;48.730;9.304;2022-09-09T09:17:04;2.25;;;1.70;;
966;SDS011;56108;48.730;9.304;2022-09-09T09:19:20;3.20;;;1.50;;
966;SDS011;56108;48.730;9.304;2022-09-09T09:21:34;2.00;;;1.90;;
966;SDS011;56108;48.730;9.304;2022-09-09T09:23:52;3.00;;;1.67;;
966;SDS011;56108;48.730;9.304;2022-09-09T09:26:06;2.70;;;1.53;;
966;SDS011;56108;48.730;9.304;2022-09-09T09:28:18;1.43;;;1.23;;
966;SDS011;56108;48.730;9.304;2022-09-09T09:30:36;2.77;;;1.50;;
966;SDS011;56108;48.730;9.304;2022-09-09T09:32:51;2.80;;;1.40;;
966;SDS011;56108;48.730;9.304;2022-09-09T09:35:06;2.17;;;1.63;;
966;SDS011;56108;48.730;9.304;2022-09-09T09:37:21;1.50;;;1.30;;
966;SDS011;56108;48.730;9.304;2022-09-09T09:39:35;1.67;;;1.27;;
966;SDS011;56108;48.730;9.304;2022-09-09T09:42:07;0.80;;;0.60;;
966;SDS011;56108;48.730;9.304;2022-09-09T09:44:25;2.53;;;0.93;;
966;SDS011;56108;48.730;9.304;2022-09-09T09:46:42;5.00;;;0.67;;
966;SDS011;56108;48.730;9.304;2022-09-09T09:48:58;0.70;;;0.70;;
966;SDS011;56108;48.730;9.304;2022-09-09T09:51:12;0.77;;;0.50;;
966;SDS011;56108;48.730;9.304;2022-09-09T09:53:24;1.23;;;0.70;;
966;SDS011;56108;48.730;9.304;2022-09-09T09:55:34;1.37;;;0.90;;
966;SDS011;56108;48.730;9.304;2022-09-09T09:57:43;0.80;;;0.60;;
966;SDS011;56108;48.730;9.304;2022-09-09T09:59:59;0.70;;;0.57;;
966;SDS011;56108;48.730;9.304;2022-09-09T10:02:19;2.03;;;0.60;;
966;SDS011;56108;48.730;9.304;2022-09-09T10:04:37;2.73;;;0.80;;
966;SDS011;56108;48.730;9.304;2022-09-09T10:06:49;0.93;;;0.60;;
966;SDS011;56108;48.730;9.304;2022-09-09T10:08:58;0.50;;;0.50;;
966;SDS011;56108;48.730;9.304;2022-09-09T10:11:12;1.70;;;0.60;;
966;SDS011;56108;48.730;9.304;2022-09-09T10:13:37;0.87;;;0.70;;
966;SDS011;56108;48.730;9.304;2022-09-09T10:15:58;0.60;;;0.60;;
966;SDS011;56108;48.730;9.304;2022-09-09T10:18:19;0.60;;;0.53;;
966;SDS011;56108;48.730;9.304;2022-09-09T10:20:40;0.90;;;0.90;;
966;SDS011;56108;48.730;9.304;2022-09-09T10:23:01;2.23;;;1.10;;
966;SDS011;56108;48.730;9.304;2022-09-09T10:25:26;1.10;;;0.73;;
966;SDS011;56108;48.730;9.304;2022-09-09T10:27:44;2.17;;;1.00;;
966;SDS011;56108;48.730;9.304;2022-09-09T10:30:09;1.53;;;0.90;;
966;SDS011;56108;48.730;9.304;2022-09-09T10:34:54;1.20;;;1.10;;
966;SDS011;56108;48.730;9.304;2022-09-09T10:37:05;1.33;;;1.00;;
966;SDS011;56108;48.730;9.304;2022-09-09T10:39:34;1.20;;;1.10;;
966;SDS011;56108;48.730;9.304;2022-09-09T10:41:49;1.90;;;1.10;;
966;SDS011;56108;48.730;9.304;2022-09-09T10:44:16;1.53;;;1.30;;
966;SDS011;56108;48.730;9.304;2022-09-09T10:46:34;1.30;;;1.20;;
966;SDS011;56108;48.730;9.304;2022-09-09T10:48:55;1.53;;;1.17;;
966;SDS011;56108;48.730;9.304;2022-09-09T10:51:16;1.83;;;1.20;;
966;SDS011;56108;48.730;9.304;2022-09-09T10:53:39;1.20;;;1.00;;
966;SDS011;56108;48.730;9.304;2022-09-09T10:55:58;1.33;;;1.20;;
966;SDS011;56108;48.730;9.304;2022-09-09T10:58:14;1.53;;;1.20;;
966;SDS011;56108;48.730;9.304;2022-09-09T11:00:35;1.70;;;1.27;;
966;SDS011;56108;48.730;9.304;2022-09-09T11:02:48;2.60;;;1.50;;
966;SDS011;56108;48.730;9.304;2022-09-09T11:05:01;1.73;;;1.20;;
966;SDS011;56108;48.730;9.304;2022-09-09T11:07:13;2.50;;;1.17;;
966;SDS011;56108;48.730;9.304;2022-09-09T11:09:36;1.73;;;1.37;;
966;SDS011;56108;48.730;9.304;2022-09-09T11:11:52;1.20;;;1.10;;
966;SDS011;56108;48.730;9.304;2022-09-09T11:14:01;2.30;;;1.50;;
966;SDS011;56108;48.730;9.304;2022-09-09T11:16:16;1.40;;;1.30;;
966;SDS011;56108;48.730;9.304;2022-09-09T11:18:31;2.53;;;1.60;;
966;SDS011;56108;48.730;9.304;2022-09-09T11:20:44;2.00;;;1.40;;
966;SDS011;56108;48.730;9.304;2022-09-09T11:22:55;2.20;;;1.30;;
966;SDS011;56108;48.730;9.304;2022-09-09T11:25:10;3.00;;;1.50;;
966;SDS011;56108;48.730;9.304;2022-09-09T11:27:26;2.10;;;1.20;;
966;SDS011;56108;48.730;9.304;2022-09-09T11:32:47;1.97;;;1.17;;
966;SDS011;56108;48.730;9.304;2022-09-09T11:35:14;1.00;;;1.00;;
966;SDS011;56108;48.730;9.304;2022-09-09T11:37:55;1.40;;;1.03;;
966;SDS011;56108;48.730;9.304;2022-09-09T11:40:16;2.30;;;1.20;;
966;SDS011;56108;48.730;9.304;2022-09-09T11:42:32;2.15;;;1.40;;
966;SDS011;56108;48.730;9.304;2022-09-09T11:44:42;1.10;;;1.10;;
966;SDS011;56108;48.730;9.304;2022-09-09T11:46:50;2.38;;;1.30;;
966;SDS011;56108;48.730;9.304;2022-09-09T11:49:00;1.40;;;1.20;;
966;SDS011;56108;48.730;9.304;2022-09-09T11:51:13;1.52;;;1.42;;
966;SDS011;56108;48.730;9.304;2022-09-09T11:53:34;2.90;;;1.70;;
966;SDS011;56108;48.730;9.304;2022-09-09T11:56:08;3.15;;;1.40;;
966;SDS011;56108;48.730;9.304;2022-09-09T11:58:22;1.95;;;1.48;;
966;SDS011;56108;48.730;9.304;2022-09-09T12:00:31;1.35;;;1.25;;
966;SDS011;56108;48.730;9.304;2022-09-09T12:02:47;1.13;;;1.13;;
966;SDS011;56108;48.730;9.304;2022-09-09T12:04:58;3.78;;;1.23;;
966;SDS011;56108;48.730;9.304;2022-09-09T12:07:22;1.23;;;1.10;;
966;SDS011;56108;48.730;9.304;2022-09-09T12:09:43;1.27;;;0.98;;
966;SDS011;56108;48.730;9.304;2022-09-09T12:12:05;2.25;;;0.60;;
966;SDS011;56108;48.730;9.304;2022-09-09T12:14:37;0.50;;;0.50;;
966;SDS011;56108;48.730;9.304;2022-09-09T12:16:46;0.80;;;0.50;;
966;SDS011;56108;48.730;9.304;2022-09-09T12:19:02;0.50;;;0.50;;
966;SDS011;56108;48.730;9.304;2022-09-09T12:21:13;0.95;;;0.57;;
966;SDS011;56108;48.730;9.304;2022-09-09T12:23:33;0.43;;;0.43;;
966;SDS011;56108;48.730;9.304;2022-09-09T12:25:54;0.73;;;0.73;;
966;SDS011;56108;48.730;9.304;2022-09-09T12:28:09;0.77;;;0.68;;
966;SDS011;56108;48.730;9.304;2022-09-09T12:30:25;0.60;;;0.50;;
966;SDS011;56108;48.730;9.304;2022-09-09T12:32:38;0.40;;;0.40;;
966;SDS011;56108;48.730;9.304;2022-09-09T12:34:49;0.50;;;0.50;;
966;SDS011;56108;48.730;9.304;2022-09-09T12:37:02;0.52;;;0.52;;
966;SDS011;56108;48.730;9.304;2022-09-09T12:39:19;1.45;;;0.50;;
966;SDS011;56108;48.730;9.304;2022-09-09T12:41:36;0.70;;;0.55;;
966;SDS011;56108;48.730;9.304;2022-09-09T12:43:45;0.60;;;0.40;;
966;SDS011;56108;48.730;9.304;2022-09-09T12:45:57;0.63;;;0.50;;
966;SDS011;56108;48.730;9.304;2022-09-09T12:48:09;1.00;;;0.55;;
966;SDS011;56108;48.730;9.304;2022-09-09T12:50:20;0.90;;;0.90;;
966;SDS011;56108;48.730;9.304;2022-09-09T12:52:30;1.10;;;0.50;;
966;SDS011;56108;48.730;9.304;2022-09-09T12:54:44;1.58;;;0.50;;
966;SDS011;56108;48.730;9.304;2022-09-09T12:56:55;1.05;;;0.47;;
966;SDS011;56108;48.730;9.304;2022-09-09T12:59:04;1.27;;;0.70;;
966;SDS011;56108;48.730;9.304;2022-09-09T13:01:21;5.28;;;1.02;;
966;SDS011;56108;48.730;9.304;2022-09-09T13:03:31;1.33;;;0.93;;
966;SDS011;56108;48.730;9.304;2022-09-09T13:05:41;4.05;;;0.80;;
966;SDS011;56108;48.730;9.304;2022-09-09T13:07:51;0.93;;;0.70;;
966;SDS011;56108;48.730;9.304;2022-09-09T13:09:59;0.80;;;0.80;;
966;SDS011;56108;48.730;9.304;2022-09-09T13:12:13;1.17;;;0.60;;
966;SDS011;56108;48.730;9.304;2022-09-09T13:14:24;2.15;;;0.82;;
966;SDS011;56108;48.730;9.304;2022-09-09T13:16:39;0.68;;;0.52;;
966;SDS011;56108;48.730;9.304;2022-09-09T13:18:47;1.25;;;1.00;;
966;SDS011;56108;48.730;9.304;2022-09-09T13:20:56;1.58;;;0.52;;
966;SDS011;56108;48.730;9.304;2022-09-09T13:23:05;0.98;;;0.63;;
966;SDS011;56108;48.730;9.304;2022-09-09T13:25:18;1.77;;;0.70;;
966;SDS011;56108;48.730;9.304;2022-09-09T13:27:30;1.00;;;0.70;;
966;SDS011;56108;48.730;9.304;2022-09-09T13:29:50;0.80;;;0.80;;
966;SDS011;56108;48.730;9.304;2022-09-09T13:32:12;0.90;;;0.80;;
966;SDS011;56108;48.730;9.304;2022-09-09T13:34:28;0.60;;;0.60;;
966;SDS011;56108;48.730;9.304;2022-09-09T13:36:38;0.83;;;0.63;;
966;SDS011;56108;48.730;9.304;2022-09-09T13:38:53;1.05;;;0.88;;
966;SDS011;56108;48.730;9.304;2022-09-09T13:41:05;0.83;;;0.83;;
966;SDS011;56108;48.730;9.304;2022-09-09T13:43:18;1.25;;;0.57;;
966;SDS011;56108;48.730;9.304;2022-09-09T13:45:30;1.17;;;0.70;;
966;SDS011;56108;48.730;9.304;2022-09-09T13:47:42;0.53;;;0.53;;
966;SDS011;56108;48.730;9.304;2022-09-09T13:49:50;0.77;;;0.50;;
966;SDS011;56108;48.730;9.304;2022-09-09T13:52:03;4.43;;;0.70;;
966;SDS011;56108;48.730;9.304;2022-09-09T13:54:14;2.00;;;0.77;;
966;SDS011;56108;48.730;9.304;2022-09-09T13:56:23;3.30;;;0.83;;
966;SDS011;56108;48.730;9.304;2022-09-09T13:58:31;1.00;;;0.80;;
966;SDS011;56108;48.730;9.304;2022-09-09T14:00:39;1.13;;;0.80;;
966;SDS011;56108;48.730;9.304;2022-09-09T14:02:50;1.70;;;0.70;;
966;SDS011;56108;48.730;9.304;2022-09-09T14:04:59;1.23;;;0.93;;
966;SDS011;56108;48.730;9.304;2022-09-09T14:07:08;1.63;;;1.20;;
966;SDS011;56108;48.730;9.304;2022-09-09T14:09:19;0.80;;;0.80;;
966;SDS011;56108;48.730;9.304;2022-09-09T14:11:27;1.57;;;0.60;;
966;SDS011;56108;48.730;9.304;2022-09-09T14:13:35;1.03;;;1.03;;
966;SDS011;56108;48.730;9.304;2022-09-09T14:15:44;0.90;;;0.70;;
966;SDS011;56108;48.730;9.304;2022-09-09T14:17:55;0.88;;;0.70;;
966;SDS011;56108;48.730;9.304;2022-09-09T14:20:03;0.93;;;0.70;;
966;SDS011;56108;48.730;9.304;2022-09-09T14:22:13;2.80;;;0.87;;
966;SDS011;56108;48.730;9.304;2022-09-09T14:24:21;0.73;;;0.73;;
966;SDS011;56108;48.730;9.304;2022-09-09T14:26:30;2.53;;;1.87;;
966;SDS011;56108;48.730;9.304;2022-09-09T14:28:37;1.10;;;0.60;;
966;SDS011;56108;48.730;9.304;2022-09-09T14:30:59;0.90;;;0.70;;
966;SDS011;56108;48.730;9.304;2022-09-09T14:33:11;0.70;;;0.50;;